createdAt,value
2017-09-28T00:00:34.905Z,13.90
2017-09-28T00:03:02.378Z,16.90
2017-09-28T00:05:29.820Z,15.53
2017-09-28T00:07:57.252Z,16.20
2017-09-28T00:10:24.691Z,15.27
2017-09-28T00:12:52.137Z,15.17
2017-09-28T00:15:19.580Z,14.67
2017-09-28T00:17:47.016Z,15.53
2017-09-28T00:20:14.477Z,15.43
2017-09-28T00:22:42.018Z,14.93
2017-09-28T00:25:09.459Z,15.40
2017-09-28T00:27:37.001Z,14.10
2017-09-28T00:30:04.453Z,14.77
2017-09-28T00:32:31.994Z,15.00
2017-09-28T00:34:59.433Z,14.70
2017-09-28T00:37:26.872Z,14.43
2017-09-28T00:39:55.852Z,14.50
2017-09-28T00:42:23.296Z,16.17
2017-09-28T00:44:50.750Z,14.10
2017-09-28T00:47:18.288Z,15.00
2017-09-28T00:49:45.723Z,13.90
2017-09-28T00:52:13.177Z,13.33
2017-09-28T00:54:40.613Z,14.40
2017-09-28T00:57:08.066Z,14.60
2017-09-28T00:59:35.512Z,14.77
2017-09-28T01:02:03.038Z,14.30
2017-09-28T01:04:30.468Z,14.20
2017-09-28T01:06:57.912Z,13.83
2017-09-28T01:09:25.347Z,14.60
2017-09-28T01:11:52.811Z,15.30
2017-09-28T01:14:20.349Z,15.90
2017-09-28T01:16:47.883Z,14.53
2017-09-28T01:19:15.344Z,13.27
2017-09-28T01:21:42.884Z,15.93
2017-09-28T01:24:10.432Z,14.60
2017-09-28T01:26:37.974Z,13.30
2017-09-28T01:29:05.418Z,13.90
2017-09-28T01:31:32.868Z,13.70
2017-09-28T01:34:00.300Z,13.87
2017-09-28T01:36:27.745Z,13.57
2017-09-28T01:38:55.291Z,12.83
2017-09-28T01:41:22.732Z,13.17
2017-09-28T01:43:50.167Z,13.63
2017-09-28T01:46:17.627Z,13.57
2017-09-28T01:48:45.059Z,13.93
2017-09-28T01:51:12.604Z,14.03
2017-09-28T01:53:40.049Z,13.53
2017-09-28T01:56:07.489Z,15.00
2017-09-28T01:58:34.927Z,13.70
2017-09-28T02:01:02.393Z,12.97
2017-09-28T02:03:29.817Z,12.80
2017-09-28T02:05:57.261Z,12.90
2017-09-28T02:08:24.695Z,13.20
2017-09-28T02:10:52.913Z,14.70
2017-09-28T02:13:20.356Z,13.33
2017-09-28T02:15:47.800Z,13.80
2017-09-28T02:18:15.271Z,12.53
2017-09-28T02:20:42.684Z,12.63
2017-09-28T02:23:10.119Z,11.90
2017-09-28T02:25:37.565Z,12.73
2017-09-28T02:28:05.004Z,11.80
2017-09-28T02:30:32.509Z,12.40
2017-09-28T02:33:00.053Z,13.13
2017-09-28T02:35:27.592Z,12.60
2017-09-28T02:37:55.025Z,12.50
2017-09-28T02:40:22.475Z,12.23
2017-09-28T02:42:50.020Z,12.27
2017-09-28T02:45:17.455Z,11.80
2017-09-28T02:47:44.912Z,12.80
2017-09-28T02:50:12.452Z,11.17
2017-09-28T02:52:40.011Z,12.03
2017-09-28T02:55:07.453Z,11.80
2017-09-28T02:57:34.987Z,12.20
2017-09-28T03:00:02.528Z,12.60
2017-09-28T03:02:29.971Z,12.07
2017-09-28T03:04:57.515Z,12.67
2017-09-28T03:07:24.955Z,13.67
2017-09-28T03:09:52.406Z,12.33
2017-09-28T03:12:19.954Z,11.93
2017-09-28T03:14:47.393Z,12.70
2017-09-28T03:17:14.949Z,13.03
2017-09-28T03:19:42.392Z,12.23
2017-09-28T03:22:10.607Z,12.17
2017-09-28T03:24:38.049Z,11.70
2017-09-28T03:27:05.529Z,10.73
2017-09-28T03:29:33.728Z,11.70
2017-09-28T03:32:01.176Z,11.20
2017-09-28T03:34:28.607Z,12.63
2017-09-28T03:36:56.044Z,11.23
2017-09-28T03:39:24.244Z,12.90
2017-09-28T03:41:51.707Z,11.20
2017-09-28T03:44:19.147Z,11.33
2017-09-28T03:46:46.592Z,10.20
2017-09-28T03:49:14.032Z,12.30
2017-09-28T03:51:41.475Z,11.63
2017-09-28T03:54:08.920Z,11.27
2017-09-28T03:56:36.356Z,11.43
2017-09-28T03:59:03.811Z,10.20
2017-09-28T04:01:31.409Z,12.50
2017-09-28T04:03:58.920Z,12.17
2017-09-28T04:06:26.443Z,10.93
2017-09-28T04:08:53.880Z,12.17
2017-09-28T04:11:21.436Z,11.50
2017-09-28T04:13:48.868Z,11.20
2017-09-28T04:16:16.324Z,11.30
2017-09-28T04:18:43.876Z,11.70
2017-09-28T04:21:11.322Z,12.40
2017-09-28T04:23:38.847Z,10.53
2017-09-28T04:26:06.291Z,11.33
2017-09-28T04:28:34.022Z,11.67
2017-09-28T04:31:01.537Z,11.00
2017-09-28T04:33:28.980Z,12.20
2017-09-28T04:35:56.477Z,11.33
2017-09-28T04:38:23.912Z,11.80
2017-09-28T04:40:51.356Z,11.13
2017-09-28T04:43:18.878Z,11.53
2017-09-28T04:45:46.340Z,12.30
2017-09-28T04:48:14.603Z,11.70
2017-09-28T04:50:42.041Z,11.30
2017-09-28T04:53:09.491Z,11.00
2017-09-28T04:55:36.931Z,12.00
2017-09-28T04:58:04.376Z,11.43
2017-09-28T05:00:31.815Z,11.27
2017-09-28T05:02:59.275Z,12.30
2017-09-28T05:05:27.480Z,11.33
2017-09-28T05:07:54.929Z,11.70
2017-09-28T05:10:22.363Z,11.37
2017-09-28T05:12:49.843Z,11.63
2017-09-28T05:15:17.301Z,10.77
2017-09-28T05:17:44.772Z,12.07
2017-09-28T05:20:12.971Z,12.13
2017-09-28T05:22:40.417Z,11.87
2017-09-28T05:25:07.880Z,12.70
2017-09-28T05:27:35.336Z,11.53
2017-09-28T05:30:02.774Z,11.03
2017-09-28T05:32:30.311Z,11.67
2017-09-28T05:34:57.854Z,11.83
2017-09-28T05:37:25.298Z,11.93
2017-09-28T05:39:52.744Z,11.97
2017-09-28T05:42:20.189Z,11.80
2017-09-28T05:44:47.629Z,11.70
2017-09-28T05:47:15.063Z,11.53
2017-09-28T05:49:42.508Z,10.80
2017-09-28T05:52:09.951Z,11.60
2017-09-28T05:54:37.414Z,11.03
2017-09-28T05:57:04.940Z,11.80
2017-09-28T05:59:32.491Z,10.77
2017-09-28T06:01:59.937Z,10.33
2017-09-28T06:04:27.385Z,11.70
2017-09-28T06:06:54.827Z,11.40
2017-09-28T06:09:23.080Z,11.43
2017-09-28T06:11:50.525Z,11.90
2017-09-28T06:14:17.972Z,11.33
2017-09-28T06:16:45.505Z,13.03
2017-09-28T06:19:12.963Z,10.67
2017-09-28T06:21:40.402Z,11.57
2017-09-28T06:24:07.941Z,11.63
2017-09-28T06:26:35.386Z,12.00
2017-09-28T06:29:02.820Z,11.50
2017-09-28T06:31:30.261Z,10.47
2017-09-28T06:33:57.813Z,11.90
2017-09-28T06:36:25.278Z,12.03
2017-09-28T06:38:53.480Z,12.47
2017-09-28T06:41:20.927Z,10.60
2017-09-28T06:43:48.371Z,11.93
2017-09-28T06:46:15.845Z,12.10
2017-09-28T06:48:43.289Z,11.40
2017-09-28T06:51:10.820Z,10.47
2017-09-28T06:53:38.263Z,11.90
2017-09-28T06:56:05.703Z,10.50
2017-09-28T06:58:33.140Z,11.57
2017-09-28T07:01:00.671Z,12.50
2017-09-28T07:03:28.142Z,10.13
2017-09-28T07:05:55.680Z,10.10
2017-09-28T07:08:23.124Z,11.30
2017-09-28T07:10:50.668Z,11.17
2017-09-28T07:13:18.872Z,11.13
2017-09-28T07:15:46.376Z,10.50
2017-09-28T07:18:13.825Z,10.37
2017-09-28T07:20:41.282Z,9.93
2017-09-28T07:23:09.489Z,9.57
2017-09-28T07:25:37.043Z,10.73
2017-09-28T07:28:04.504Z,9.90
2017-09-28T07:30:31.947Z,10.40
2017-09-28T07:32:59.392Z,9.90
2017-09-28T07:35:26.833Z,10.93
2017-09-28T07:37:54.271Z,10.30
2017-09-28T07:40:21.722Z,9.77
2017-09-28T07:42:49.155Z,9.90
2017-09-28T07:45:16.604Z,9.50
2017-09-28T07:47:44.064Z,10.23
2017-09-28T07:50:11.507Z,9.27
2017-09-28T07:52:39.733Z,9.57
2017-09-28T07:55:07.164Z,9.00
2017-09-28T07:57:34.619Z,10.30
2017-09-28T08:00:02.080Z,9.10
2017-09-28T08:02:29.520Z,9.20
2017-09-28T08:04:56.959Z,9.57
2017-09-28T08:07:24.408Z,10.10
2017-09-28T08:09:51.962Z,9.00
2017-09-28T08:12:19.491Z,10.00
2017-09-28T08:14:47.326Z,9.50
2017-09-28T08:17:14.790Z,10.90
2017-09-28T08:19:42.249Z,10.47
2017-09-28T08:22:09.665Z,9.20
2017-09-28T08:24:37.128Z,10.13
2017-09-28T08:27:04.555Z,8.93
2017-09-28T08:29:32.104Z,8.93
2017-09-28T08:31:59.532Z,9.50
2017-09-28T08:34:26.988Z,9.97
2017-09-28T08:36:54.437Z,10.90
2017-09-28T08:39:21.876Z,9.70
2017-09-28T08:41:49.391Z,9.53
2017-09-28T08:44:16.880Z,9.93
2017-09-28T08:46:44.316Z,20.20
2017-09-28T08:49:11.764Z,11.07
2017-09-28T08:51:39.204Z,12.60
2017-09-28T08:54:06.650Z,9.90
2017-09-28T08:56:34.071Z,9.70
2017-09-28T08:59:01.523Z,9.20
2017-09-28T09:01:28.970Z,8.67
2017-09-28T09:03:56.412Z,9.33
2017-09-28T09:06:23.950Z,9.77
2017-09-28T09:08:51.404Z,10.77
2017-09-28T09:11:19.037Z,9.90
2017-09-28T09:13:46.609Z,10.07
2017-09-28T09:16:14.149Z,10.07
2017-09-28T09:18:41.595Z,10.70
2017-09-28T09:21:09.801Z,9.57
2017-09-28T09:23:37.288Z,9.27
2017-09-28T09:26:04.720Z,8.87
2017-09-28T09:28:32.156Z,9.10
2017-09-28T09:30:59.604Z,8.80
2017-09-28T09:33:27.032Z,8.70
2017-09-28T09:35:54.468Z,7.70
2017-09-28T09:38:21.895Z,7.83
2017-09-28T09:40:49.327Z,6.93
2017-09-28T09:43:16.759Z,7.37
2017-09-28T09:45:44.192Z,7.60
2017-09-28T09:48:12.381Z,7.80
2017-09-28T09:50:39.811Z,8.30
2017-09-28T09:53:07.254Z,9.20
2017-09-28T09:55:34.698Z,8.97
2017-09-28T09:58:02.980Z,8.70
2017-09-28T10:00:30.413Z,7.53
2017-09-28T10:02:57.852Z,8.50
2017-09-28T10:05:25.305Z,6.90
2017-09-28T10:07:57.622Z,8.80
2017-09-28T10:10:32.117Z,8.53
2017-09-28T10:13:07.705Z,9.37
2017-09-28T10:15:38.453Z,7.77
2017-09-28T10:18:05.876Z,7.80
2017-09-28T10:20:33.305Z,7.80
2017-09-28T10:23:00.862Z,7.13
2017-09-28T10:25:28.330Z,7.87
2017-09-28T10:27:57.268Z,8.40
2017-09-28T10:30:24.691Z,7.60
2017-09-28T10:32:52.185Z,8.07
2017-09-28T10:35:19.691Z,7.60
2017-09-28T10:37:47.158Z,8.90
2017-09-28T10:40:14.615Z,8.57
2017-09-28T10:42:42.057Z,8.83
2017-09-28T10:45:09.486Z,8.03
2017-09-28T10:47:37.042Z,7.67
2017-09-28T10:50:04.480Z,8.23
2017-09-28T10:52:31.925Z,8.67
2017-09-28T10:54:59.360Z,7.63
2017-09-28T10:57:26.809Z,8.17
2017-09-28T10:59:54.245Z,8.63
2017-09-28T11:02:21.679Z,8.20
2017-09-28T11:04:49.119Z,13.17
2017-09-28T11:07:16.575Z,9.97
2017-09-28T11:09:44.017Z,8.67
2017-09-28T11:12:11.440Z,7.37
2017-09-28T11:14:38.975Z,8.90
2017-09-28T11:17:06.404Z,8.10
2017-09-28T11:19:33.839Z,7.87
2017-09-28T11:22:01.268Z,8.00
2017-09-28T11:24:29.503Z,7.50
2017-09-28T11:26:56.935Z,7.10
2017-09-28T11:29:24.379Z,8.33
2017-09-28T11:31:51.843Z,8.00
2017-09-28T11:34:19.259Z,6.57
2017-09-28T11:36:46.701Z,7.00
2017-09-28T11:39:14.165Z,8.20
2017-09-28T11:41:41.589Z,8.00
2017-09-28T11:44:09.045Z,8.10
2017-09-28T11:46:36.477Z,7.90
2017-09-28T11:49:04.037Z,8.50
2017-09-28T11:51:31.605Z,8.37
2017-09-28T11:53:59.796Z,9.10
2017-09-28T11:56:27.235Z,9.87
2017-09-28T11:58:54.712Z,7.73
2017-09-28T12:01:22.167Z,7.73
2017-09-28T12:03:51.411Z,8.33
2017-09-28T12:06:18.834Z,6.47
2017-09-28T12:08:46.257Z,7.07
2017-09-28T12:11:14.498Z,7.37
2017-09-28T12:16:16.000Z,6.93
2017-09-28T12:18:43.415Z,6.90
2017-09-28T12:21:10.852Z,7.00
2017-09-28T12:23:38.288Z,8.00
2017-09-28T12:26:06.476Z,6.83
2017-09-28T12:28:33.908Z,6.77
2017-09-28T12:31:01.399Z,6.27
2017-09-28T12:33:28.864Z,6.90
2017-09-28T12:35:56.298Z,7.50
2017-09-28T12:38:23.737Z,6.57
2017-09-28T12:40:51.171Z,7.13
2017-09-28T12:43:19.372Z,6.60
2017-09-28T12:45:46.808Z,6.57
2017-09-28T12:48:15.005Z,7.77
2017-09-28T12:50:42.444Z,6.60
2017-09-28T12:53:09.884Z,7.70
2017-09-28T12:55:37.433Z,6.77
2017-09-28T12:58:05.783Z,6.43
2017-09-28T13:00:33.216Z,7.40
2017-09-28T13:03:00.742Z,5.87
2017-09-28T13:05:28.181Z,6.67
2017-09-28T13:07:56.383Z,7.47
2017-09-28T13:10:23.862Z,6.17
2017-09-28T13:12:51.298Z,7.20
2017-09-28T13:15:18.727Z,6.20
2017-09-28T13:17:46.281Z,6.90
2017-09-28T13:20:13.726Z,6.70
2017-09-28T13:22:41.273Z,6.97
2017-09-28T13:25:08.720Z,8.97
2017-09-28T13:27:36.156Z,7.23
2017-09-28T13:30:03.605Z,7.03
2017-09-28T13:32:31.043Z,7.10
2017-09-28T13:35:00.012Z,6.60
2017-09-28T13:37:27.476Z,8.10
2017-09-28T13:39:54.907Z,7.47
2017-09-28T13:42:22.337Z,7.10
2017-09-28T13:44:49.769Z,5.90
2017-09-28T13:47:17.247Z,6.67
2017-09-28T13:49:44.811Z,7.20
2017-09-28T13:52:12.227Z,6.20
2017-09-28T13:54:39.771Z,7.60
2017-09-28T13:57:07.218Z,6.17
2017-09-28T13:59:34.640Z,7.13
2017-09-28T14:02:02.096Z,6.37
2017-09-28T14:04:29.553Z,5.83
2017-09-28T14:06:56.975Z,5.53
2017-09-28T14:09:24.416Z,6.10
2017-09-28T14:11:52.936Z,5.90
2017-09-28T14:14:20.433Z,5.50
2017-09-28T14:16:47.869Z,6.40
2017-09-28T14:19:15.315Z,5.77
2017-09-28T14:21:42.780Z,6.93
2017-09-28T14:24:10.212Z,6.50
2017-09-28T14:26:37.645Z,5.90
2017-09-28T14:29:05.081Z,6.10
2017-09-28T14:31:32.631Z,5.70
2017-09-28T14:34:00.074Z,5.40
2017-09-28T14:36:27.515Z,6.00
2017-09-28T14:38:54.956Z,6.03
2017-09-28T14:41:22.680Z,6.47
2017-09-28T14:43:50.102Z,5.80
2017-09-28T14:46:17.595Z,6.87
2017-09-28T14:48:45.048Z,7.20
2017-09-28T14:51:12.476Z,7.13
2017-09-28T14:53:39.920Z,7.47
2017-09-28T14:56:07.478Z,6.17
2017-09-28T14:58:35.681Z,6.27
2017-09-28T15:01:03.108Z,6.43
2017-09-28T15:03:31.432Z,6.13
2017-09-28T15:05:59.664Z,7.17
2017-09-28T15:08:27.100Z,6.03
2017-09-28T15:10:54.527Z,7.07
2017-09-28T15:13:21.960Z,6.73
2017-09-28T15:15:50.160Z,6.50
2017-09-28T15:18:17.629Z,6.53
2017-09-28T15:20:45.066Z,8.30
2017-09-28T15:23:12.497Z,6.27
2017-09-28T15:25:39.973Z,6.80
2017-09-28T15:28:07.396Z,7.40
2017-09-28T15:30:34.932Z,6.87
2017-09-28T15:33:02.387Z,6.57
2017-09-28T15:35:29.820Z,7.60
2017-09-28T15:37:57.260Z,8.20
2017-09-28T15:40:24.704Z,7.60
2017-09-28T15:42:52.131Z,8.50
2017-09-28T15:45:19.588Z,9.47
2017-09-28T15:47:47.030Z,7.63
2017-09-28T15:50:14.468Z,7.13
2017-09-28T15:52:42.001Z,7.97
2017-09-28T15:55:09.441Z,7.30
2017-09-28T15:57:36.923Z,7.30
2017-09-28T16:00:04.356Z,9.10
2017-09-28T16:02:32.560Z,8.70
2017-09-28T16:05:00.051Z,7.83
2017-09-28T16:07:27.510Z,9.23
2017-09-28T16:09:54.931Z,7.97
2017-09-28T16:12:22.359Z,8.00
2017-09-28T16:14:49.884Z,7.70
2017-09-28T16:17:17.348Z,6.97
2017-09-28T16:19:44.776Z,7.70
2017-09-28T16:22:12.216Z,6.67
2017-09-28T16:24:39.657Z,7.13
2017-09-28T16:27:07.145Z,8.03
2017-09-28T16:29:34.594Z,8.53
2017-09-28T16:32:02.032Z,7.80
2017-09-28T16:34:29.492Z,8.80
2017-09-28T16:36:56.914Z,8.70
2017-09-28T16:39:25.857Z,7.97
2017-09-28T16:41:53.302Z,8.40
2017-09-28T16:44:20.760Z,8.17
2017-09-28T16:46:48.333Z,8.23
2017-09-28T16:49:15.825Z,8.23
2017-09-28T16:51:43.270Z,8.93
2017-09-28T16:54:10.707Z,9.10
2017-09-28T16:56:38.187Z,9.50
2017-09-28T16:59:05.631Z,9.43
2017-09-28T17:01:34.079Z,15.83
2017-09-28T17:04:01.622Z,13.53
2017-09-28T17:06:29.088Z,14.33
2017-09-28T17:08:56.637Z,15.47
2017-09-28T17:11:24.175Z,13.37
2017-09-28T17:13:51.615Z,16.00
2017-09-28T17:16:19.064Z,13.90
2017-09-28T17:18:46.613Z,13.67
2017-09-28T17:21:14.812Z,14.37
2017-09-28T17:23:42.277Z,12.87
2017-09-28T17:26:09.716Z,12.33
2017-09-28T17:28:37.162Z,11.50
2017-09-28T17:31:04.609Z,10.43
2017-09-28T17:33:32.115Z,9.70
2017-09-28T17:36:00.344Z,10.10
2017-09-28T17:38:27.776Z,9.70
2017-09-28T17:40:55.216Z,10.23
2017-09-28T17:43:22.897Z,11.47
2017-09-28T17:45:51.125Z,11.03
2017-09-28T17:48:18.604Z,10.43
2017-09-28T17:50:46.132Z,10.00
2017-09-28T17:53:13.571Z,10.23
2017-09-28T17:55:41.109Z,9.73
2017-09-28T17:58:08.566Z,10.33
2017-09-28T18:00:36.009Z,9.03
2017-09-28T18:03:03.541Z,8.37
2017-09-28T18:05:31.618Z,10.20
2017-09-28T18:07:59.148Z,10.27
2017-09-28T18:10:26.598Z,9.63
2017-09-28T18:12:54.037Z,9.73
2017-09-28T18:15:21.574Z,10.07
2017-09-28T18:17:49.074Z,12.43
2017-09-28T18:20:18.208Z,11.53
2017-09-28T18:22:46.496Z,10.30
2017-09-28T18:25:14.009Z,10.07
2017-09-28T18:27:42.212Z,10.13
2017-09-28T18:30:09.657Z,10.33
2017-09-28T18:32:37.881Z,11.30
2017-09-28T18:35:06.093Z,10.97
2017-09-28T18:37:33.529Z,11.30
2017-09-28T18:40:00.981Z,9.87
2017-09-28T18:42:28.420Z,9.67
2017-09-28T18:44:55.886Z,10.37
2017-09-28T18:47:23.344Z,10.13
2017-09-28T18:49:50.804Z,11.40
2017-09-28T18:52:18.241Z,9.40
2017-09-28T18:54:46.449Z,10.10
2017-09-28T18:57:13.902Z,10.37
2017-09-28T18:59:41.338Z,10.80
2017-09-28T19:02:08.893Z,10.57
2017-09-28T19:04:36.321Z,9.90
2017-09-28T19:07:03.773Z,11.77
2017-09-28T19:09:31.212Z,11.80
2017-09-28T19:11:58.680Z,11.40
2017-09-28T19:14:26.137Z,11.73
2017-09-28T19:16:53.589Z,10.80
2017-09-28T19:19:21.064Z,11.93
2017-09-28T19:21:48.663Z,10.57
2017-09-28T19:24:16.111Z,12.67
2017-09-28T19:26:43.573Z,11.30
2017-09-28T19:29:11.790Z,11.87
2017-09-28T19:31:39.245Z,12.30
2017-09-28T19:34:06.680Z,13.23
2017-09-28T19:36:34.141Z,14.03
2017-09-28T19:39:01.624Z,14.87
2017-09-28T19:41:29.131Z,13.80
2017-09-28T19:43:56.564Z,13.70
2017-09-28T19:46:24.011Z,12.80
2017-09-28T19:48:51.462Z,11.50
2017-09-28T19:51:18.896Z,12.17
2017-09-28T19:53:46.356Z,11.27
2017-09-28T19:56:13.787Z,11.77
2017-09-28T19:58:41.320Z,11.03
2017-09-28T20:01:08.760Z,12.30
2017-09-28T20:03:37.028Z,12.50
2017-09-28T20:06:04.471Z,12.30
2017-09-28T20:08:31.913Z,11.53
2017-09-28T20:10:59.354Z,12.07
2017-09-28T20:13:26.796Z,11.67
2017-09-28T20:15:54.254Z,11.93
2017-09-28T20:18:22.469Z,13.30
2017-09-28T20:20:49.913Z,10.70
2017-09-28T20:23:17.380Z,13.30
2017-09-28T20:25:44.817Z,12.83
2017-09-28T20:28:12.266Z,13.53
2017-09-28T20:30:39.700Z,13.27
2017-09-28T20:33:07.144Z,13.93
2017-09-28T20:35:34.584Z,14.53
2017-09-28T20:38:02.039Z,13.93
2017-09-28T20:40:29.505Z,14.23
2017-09-28T20:42:57.737Z,15.10
2017-09-28T20:45:25.190Z,16.87
2017-09-28T20:47:52.629Z,18.50
2017-09-28T20:50:20.069Z,14.23
2017-09-28T20:52:47.508Z,18.70
2017-09-28T20:55:16.460Z,20.60
2017-09-28T20:57:43.909Z,13.87
2017-09-28T21:00:11.355Z,13.90
2017-09-28T21:02:38.822Z,13.30
2017-09-28T21:05:06.292Z,13.80
2017-09-28T21:07:34.496Z,13.37
2017-09-28T21:10:01.940Z,13.30
2017-09-28T21:12:29.381Z,12.47
2017-09-28T21:14:56.852Z,12.67
2017-09-28T21:17:24.306Z,13.00
2017-09-28T21:19:51.768Z,14.73
2017-09-28T21:22:20.403Z,20.90
2017-09-28T21:24:47.840Z,42.00
2017-09-28T21:27:15.308Z,50.43
2017-09-28T21:29:43.553Z,49.67
2017-09-28T21:32:10.996Z,18.67
2017-09-28T21:34:38.447Z,13.37
2017-09-28T21:37:05.896Z,15.10
2017-09-28T21:39:34.109Z,12.80
2017-09-28T21:42:01.566Z,13.87
2017-09-28T21:44:29.038Z,14.50
2017-09-28T21:46:56.497Z,14.10
2017-09-28T21:49:24.708Z,14.67
2017-09-28T21:51:52.180Z,16.23
2017-09-28T21:54:21.144Z,14.40
2017-09-28T21:56:48.572Z,17.10
2017-09-28T21:59:16.007Z,16.07
2017-09-28T22:01:43.593Z,12.70
2017-09-28T22:04:11.024Z,13.90
2017-09-28T22:06:38.473Z,13.50
2017-09-28T22:09:05.921Z,13.77
2017-09-28T22:11:33.377Z,14.00
2017-09-28T22:14:01.599Z,13.20
2017-09-28T22:16:29.060Z,14.00
2017-09-28T22:18:56.506Z,14.33
2017-09-28T22:21:23.956Z,13.83
2017-09-28T22:23:51.397Z,21.70
2017-09-28T22:26:18.856Z,23.30
2017-09-28T22:28:47.066Z,22.50
2017-09-28T22:31:15.277Z,14.30
2017-09-28T22:33:43.486Z,15.47
2017-09-28T22:36:11.691Z,17.67
2017-09-28T22:38:39.903Z,20.93
2017-09-28T22:41:07.368Z,15.57
2017-09-28T22:43:34.800Z,17.30
2017-09-28T22:46:02.261Z,18.07
2017-09-28T22:48:29.692Z,15.87
2017-09-28T22:50:57.132Z,13.47
2017-09-28T22:53:24.582Z,16.00
2017-09-28T22:55:52.011Z,16.50
2017-09-28T22:58:19.453Z,17.47
2017-09-28T23:00:46.901Z,18.90
2017-09-28T23:03:14.350Z,16.50
2017-09-28T23:05:41.921Z,24.10
2017-09-28T23:08:10.142Z,31.00
2017-09-28T23:10:37.582Z,38.47
2017-09-28T23:13:05.016Z,26.27
2017-09-28T23:15:32.447Z,16.20
2017-09-28T23:17:59.906Z,15.50
2017-09-28T23:20:27.340Z,14.20
2017-09-28T23:22:54.804Z,13.70
2017-09-28T23:25:22.237Z,13.07
2017-09-28T23:27:50.443Z,14.47
2017-09-28T23:30:18.654Z,13.53
2017-09-28T23:32:46.092Z,13.90
2017-09-28T23:35:13.527Z,14.23
2017-09-28T23:37:41.087Z,13.13
2017-09-28T23:40:08.518Z,13.40
2017-09-28T23:42:35.966Z,12.77
2017-09-28T23:45:03.412Z,12.27
2017-09-28T23:47:30.855Z,11.90
2017-09-28T23:49:58.301Z,14.20
2017-09-28T23:52:25.740Z,15.80
2017-09-28T23:54:53.187Z,19.87
2017-09-28T23:57:20.634Z,18.00
2017-09-28T23:59:48.104Z,18.00
